Time;durP1;ratioP1;P1;durP2;ratioP2;P2;SDS_P1;SDS_P2;PMS_P1;PMS_P2;Temp;Humidity;BMP_temperature;BMP_pressure;BME280_temperature;BME280_humidity;BME280_pressure;Samples;Min_cycle;Max_cycle;Signal;HPM_P1;HPM_P2
2022/01/23 00:00:07;;;;;;;12.18;6.37;;;7.80;72.90;;;;;;2385794;54;20943;-69
2022/01/23 00:02:35;;;;;;;10.82;6.43;;;7.80;72.80;;;;;;2385679;54;21393;-67
2022/01/23 00:05:06;;;;;;;11.12;7.25;;;7.80;72.80;;;;;;2385813;54;20923;-66
2022/01/23 00:07:34;;;;;;;12.05;7.07;;;7.80;72.90;;;;;;2387134;54;20964;-67
2022/01/23 00:10:04;;;;;;;14.18;7.32;;;7.80;72.90;;;;;;2624509;52;20981;-69
2022/01/23 00:12:36;;;;;;;11.38;6.43;;;7.80;72.80;;;;;;2372906;54;20936;-66
2022/01/23 00:17:46;;;;;;;10.30;6.37;;;7.80;72.80;;;;;;2385139;54;20919;-68
2022/01/23 00:20:13;;;;;;;12.25;7.50;;;7.80;72.90;;;;;;2386051;54;20944;-69
2022/01/23 00:22:48;;;;;;;14.07;7.82;;;7.80;72.90;;;;;;2385626;54;21480;-68
2022/01/23 00:30:55;;;;;;;13.13;6.75;;;7.80;72.90;;;;;;2398101;52;20924;-67
2022/01/23 00:33:23;;;;;;;10.82;6.70;;;7.80;72.90;;;;;;2394689;53;20919;-69
2022/01/23 00:35:49;;;;;;;11.32;6.22;;;7.80;73.00;;;;;;2395144;53;20936;-68
2022/01/23 00:38:15;;;;;;;12.20;6.95;;;7.80;73.10;;;;;;2395157;53;20919;-67
2022/01/23 00:40:43;;;;;;;12.07;6.50;;;7.80;73.10;;;;;;2394853;53;21046;-69
2022/01/23 00:43:25;;;;;;;11.43;7.35;;;7.70;73.00;;;;;;2395357;53;20995;-68
2022/01/23 00:45:56;;;;;;;12.32;6.97;;;7.80;73.20;;;;;;2383967;53;21004;-68
2022/01/23 00:48:29;;;;;;;10.98;5.68;;;7.80;73.10;;;;;;2380376;53;20915;-68
2022/01/23 00:50:55;;;;;;;10.02;5.82;;;7.80;72.90;;;;;;2397504;52;21340;-68
2022/01/23 00:53:24;;;;;;;8.00;4.87;;;7.70;72.70;;;;;;2426241;52;20983;-68
2022/01/23 00:55:50;;;;;;;9.32;5.07;;;7.70;72.80;;;;;;2394373;53;20991;-69
2022/01/23 00:58:17;;;;;;;9.27;5.15;;;7.70;72.80;;;;;;2371867;53;20904;-67
2022/01/23 01:00:43;;;;;;;8.35;4.57;;;7.80;73.00;;;;;;2396531;53;20939;-65
2022/01/23 01:03:10;;;;;;;8.20;4.95;;;7.70;72.90;;;;;;2553379;53;21452;-66
2022/01/23 01:05:36;;;;;;;9.82;5.60;;;7.70;73.00;;;;;;2653482;52;20923;-66
2022/01/23 01:08:04;;;;;;;8.63;5.28;;;7.70;73.00;;;;;;2395335;53;20930;-66
2022/01/23 01:10:39;;;;;;;9.32;5.20;;;7.70;73.00;;;;;;2395178;53;20960;-68
2022/01/23 01:13:09;;;;;;;9.20;5.87;;;7.70;73.00;;;;;;2491349;52;21003;-69
2022/01/23 01:15:53;;;;;;;10.23;5.95;;;7.70;73.00;;;;;;2396769;53;20932;-69
2022/01/23 01:32:08;;;;;;;10.48;6.15;;;7.70;72.90;;;;;;2433617;52;21263;-68
2022/01/23 01:34:47;;;;;;;10.50;6.18;;;7.70;72.90;;;;;;2360086;54;20987;-68
2022/01/23 01:37:14;;;;;;;10.35;5.00;;;7.70;72.90;;;;;;2480713;52;21519;-65
2022/01/23 01:39:41;;;;;;;7.30;4.35;;;7.70;72.90;;;;;;2395279;53;20936;-68
2022/01/23 01:42:07;;;;;;;10.13;5.22;;;7.70;72.80;;;;;;2394716;53;20955;-67
2022/01/23 01:44:34;;;;;;;9.52;4.50;;;7.70;72.70;;;;;;2394726;53;20927;-68
2022/01/23 01:47:00;;;;;;;7.60;4.43;;;7.60;72.40;;;;;;2395151;53;20931;-67
2022/01/23 01:49:31;;;;;;;9.30;4.93;;;7.60;72.50;;;;;;2394391;53;20919;-68
2022/01/23 01:51:58;;;;;;;8.10;4.82;;;7.60;72.50;;;;;;2394783;53;21018;-68
2022/01/23 01:54:26;;;;;;;7.12;4.28;;;7.60;72.60;;;;;;2395181;53;20979;-68
2022/01/23 01:57:04;;;;;;;7.30;4.15;;;7.60;72.70;;;;;;2395077;53;21014;-68
2022/01/23 02:00:11;;;;;;;7.97;4.72;;;7.50;72.60;;;;;;2386879;53;20945;-69
2022/01/23 02:13:01;;;;;;;8.43;4.25;;;7.50;72.70;;;;;;2394805;53;20915;-66
2022/01/23 02:22:44;;;;;;;7.60;4.35;;;7.50;72.60;;;;;;2596338;52;21018;-68
2022/01/23 02:25:29;;;;;;;7.55;4.40;;;7.50;73.30;;;;;;2410549;52;20999;-67
2022/01/23 02:55:42;;;;;;;6.82;3.58;;;7.30;72.80;;;;;;2366063;53;21017;-66
2022/01/23 02:58:10;;;;;;;7.03;4.20;;;7.30;72.90;;;;;;2389836;53;21101;-68
2022/01/23 03:00:48;;;;;;;6.80;3.87;;;7.30;72.90;;;;;;2387104;53;20943;-67
2022/01/23 03:03:22;;;;;;;7.00;3.62;;;7.30;72.90;;;;;;2386611;53;20949;-66
2022/01/23 03:06:12;;;;;;;6.78;3.90;;;7.30;72.90;;;;;;2384291;54;20978;-66
2022/01/23 03:14:37;;;;;;;7.30;3.97;;;7.30;72.90;;;;;;2394783;53;21035;-66
2022/01/23 03:31:08;;;;;;;6.35;3.75;;;7.30;73.00;;;;;;2369984;53;21034;-67
2022/01/23 03:33:35;;;;;;;5.18;2.95;;;7.30;73.10;;;;;;2338174;54;21762;-67
2022/01/23 03:36:02;;;;;;;5.75;3.08;;;7.30;73.10;;;;;;2512593;52;20981;-69
2022/01/23 03:38:28;;;;;;;5.30;3.10;;;7.30;73.10;;;;;;2366762;54;20943;-68
2022/01/23 03:40:54;;;;;;;5.85;3.28;;;7.30;73.10;;;;;;2366577;54;20960;-70
2022/01/23 03:43:30;;;;;;;7.07;3.05;;;7.30;73.10;;;;;;2366510;53;20978;-67
2022/01/23 03:55:14;;;;;;;5.85;2.90;;;7.30;73.00;;;;;;2358772;53;20938;-67
2022/01/23 03:57:40;;;;;;;5.43;2.85;;;7.30;72.70;;;;;;2361918;53;20947;-67
2022/01/23 04:00:15;;;;;;;5.87;3.17;;;7.30;72.90;;;;;;2362201;53;20904;-68
2022/01/23 04:02:41;;;;;;;6.25;3.65;;;7.30;72.70;;;;;;2612239;53;20960;-68
2022/01/23 04:05:09;;;;;;;7.62;4.32;;;7.20;72.80;;;;;;2362917;53;20928;-69
2022/01/23 04:07:37;;;;;;;8.02;4.28;;;7.20;72.80;;;;;;2335905;53;20980;-67
2022/01/23 04:10:04;;;;;;;6.20;3.60;;;7.20;72.90;;;;;;2362691;54;20911;-67
2022/01/23 04:12:49;;;;;;;6.32;3.50;;;7.20;72.90;;;;;;2362042;54;21013;-69
2022/01/23 05:01:22;;;;;;;4.60;2.40;;;7.20;73.10;;;;;;2395344;53;20943;-65
2022/01/23 05:04:33;;;;;;;4.80;2.50;;;7.20;73.10;;;;;;2382453;53;20927;-67
2022/01/23 05:07:02;;;;;;;4.47;2.50;;;7.20;73.10;;;;;;2372348;53;20929;-66
2022/01/23 05:09:28;;;;;;;4.43;2.05;;;7.20;73.10;;;;;;2392897;53;21836;-66
2022/01/23 05:12:08;;;;;;;4.93;2.47;;;7.20;73.10;;;;;;2394023;53;21082;-67
2022/01/23 05:14:41;;;;;;;4.80;2.50;;;7.10;73.10;;;;;;2369330;53;21942;-66
2022/01/23 05:17:08;;;;;;;5.07;2.30;;;7.20;73.20;;;;;;2370856;54;20987;-69
2022/01/23 05:19:34;;;;;;;5.15;2.87;;;7.20;73.20;;;;;;2395114;53;20995;-65
2022/01/23 05:22:33;;;;;;;4.90;2.90;;;7.20;73.20;;;;;;2511013;52;21039;-66
2022/01/23 05:25:21;;;;;;;6.32;3.17;;;7.20;73.20;;;;;;2372661;53;21052;-66
2022/01/23 05:27:51;;;;;;;5.05;2.90;;;7.20;73.10;;;;;;2394152;53;20951;-67
2022/01/23 05:30:17;;;;;;;4.85;2.78;;;7.20;73.10;;;;;;2383051;53;21525;-68
2022/01/23 05:32:44;;;;;;;4.40;2.30;;;7.20;73.10;;;;;;2382696;53;21014;-66
2022/01/23 05:35:12;;;;;;;5.40;3.03;;;7.20;73.10;;;;;;2395192;53;20999;-68
2022/01/23 05:37:39;;;;;;;4.47;2.58;;;7.20;73.20;;;;;;2370366;53;20991;-68
2022/01/23 05:40:07;;;;;;;4.45;2.67;;;7.20;73.20;;;;;;2454929;52;21016;-68
2022/01/23 05:42:34;;;;;;;5.55;2.30;;;7.20;73.30;;;;;;2394979;53;20959;-65
2022/01/23 05:45:00;;;;;;;5.45;2.87;;;7.20;73.30;;;;;;2456945;52;20935;-68
2022/01/23 05:47:26;;;;;;;6.90;3.42;;;7.20;73.30;;;;;;2374200;53;21048;-66
2022/01/23 05:49:52;;;;;;;6.37;3.35;;;7.20;73.30;;;;;;2391644;53;20931;-67
2022/01/23 05:52:19;;;;;;;5.65;3.08;;;7.20;73.30;;;;;;2394929;53;20915;-66
2022/01/23 05:54:45;;;;;;;5.53;3.35;;;7.20;73.30;;;;;;2395215;53;21015;-67
2022/01/23 05:57:11;;;;;;;4.93;3.10;;;7.20;73.30;;;;;;2653165;52;20979;-68
2022/01/23 05:59:37;;;;;;;4.57;2.42;;;7.20;74.00;;;;;;2605071;52;20971;-68
2022/01/23 06:02:05;;;;;;;5.37;2.75;;;7.20;73.30;;;;;;2379883;54;20938;-69
2022/01/23 06:04:34;;;;;;;5.30;2.70;;;7.20;73.30;;;;;;2416520;52;21002;-65
2022/01/23 06:07:12;;;;;;;5.53;2.85;;;7.20;73.20;;;;;;2626983;52;20930;-67
2022/01/23 06:09:41;;;;;;;6.65;3.25;;;7.20;73.00;;;;;;2450153;52;21042;-67
2022/01/23 06:12:07;;;;;;;6.28;2.60;;;7.30;73.30;;;;;;2555379;52;20974;-68
2022/01/23 06:14:34;;;;;;;5.22;2.65;;;7.30;73.30;;;;;;2394697;53;21499;-69
2022/01/23 06:17:07;;;;;;;6.87;3.30;;;7.30;73.30;;;;;;2394944;53;21765;-69
2022/01/23 06:19:34;;;;;;;6.03;3.47;;;7.30;73.10;;;;;;2369147;53;21048;-66
2022/01/23 06:22:01;;;;;;;6.65;3.67;;;7.30;73.30;;;;;;2652958;52;20986;-67
2022/01/23 06:24:30;;;;;;;6.07;3.33;;;7.30;73.30;;;;;;2402439;52;20922;-68
2022/01/23 06:26:57;;;;;;;8.20;4.22;;;7.20;73.10;;;;;;2384439;53;20920;-67
2022/01/23 06:29:24;;;;;;;5.72;3.30;;;7.30;73.30;;;;;;2394518;53;21680;-68
2022/01/23 06:31:53;;;;;;;7.60;3.53;;;7.30;73.20;;;;;;2394793;53;21456;-68
2022/01/23 06:34:19;;;;;;;5.55;2.92;;;7.30;73.20;;;;;;2392944;53;20943;-66
2022/01/23 06:36:50;;;;;;;6.12;2.95;;;7.30;73.20;;;;;;2393885;53;21437;-68
2022/01/23 06:39:16;;;;;;;5.97;3.17;;;7.30;73.20;;;;;;2394154;53;20999;-68
2022/01/23 06:41:43;;;;;;;4.57;2.50;;;7.30;73.20;;;;;;2371885;53;20980;-67
2022/01/23 06:44:10;;;;;;;7.10;3.90;;;7.30;73.20;;;;;;2394593;53;21357;-69
2022/01/23 06:46:39;;;;;;;7.62;3.53;;;7.30;73.30;;;;;;2376686;52;21304;-69
2022/01/23 06:49:06;;;;;;;7.10;4.03;;;7.30;73.20;;;;;;2361959;53;20934;-68
2022/01/23 06:51:33;;;;;;;6.45;3.50;;;7.30;73.10;;;;;;2365872;54;20944;-68
2022/01/23 06:54:00;;;;;;;5.90;3.20;;;7.30;73.00;;;;;;2383744;53;20996;-69
2022/01/23 06:56:26;;;;;;;5.68;3.50;;;7.30;73.00;;;;;;2396442;53;20916;-67
2022/01/23 06:58:52;;;;;;;6.95;4.25;;;7.30;73.00;;;;;;2367538;53;20915;-68
2022/01/23 07:01:20;;;;;;;9.32;4.12;;;7.20;73.10;;;;;;2394947;53;20932;-67
2022/01/23 07:03:46;;;;;;;7.10;4.40;;;7.20;73.10;;;;;;2394765;53;20951;-66
2022/01/23 07:06:13;;;;;;;6.87;3.95;;;7.20;73.10;;;;;;2385092;53;22513;-69
2022/01/23 07:08:50;;;;;;;6.37;3.62;;;7.20;73.10;;;;;;2359227;54;20944;-66
2022/01/23 07:11:16;;;;;;;5.55;3.50;;;7.20;73.10;;;;;;2395168;53;21023;-69
2022/01/23 07:13:46;;;;;;;6.50;4.00;;;7.30;73.30;;;;;;2395666;53;21019;-67
2022/01/23 07:16:16;;;;;;;7.80;4.57;;;7.20;73.30;;;;;;2395043;53;21533;-65
2022/01/23 07:18:42;;;;;;;7.57;4.40;;;7.20;73.30;;;;;;2401570;52;20896;-67
2022/01/23 07:21:08;;;;;;;7.12;4.00;;;7.30;73.30;;;;;;2395121;53;22246;-66
2022/01/23 07:23:35;;;;;;;6.43;3.72;;;7.20;73.10;;;;;;2494946;53;21865;-68
2022/01/23 07:26:01;;;;;;;6.50;3.97;;;7.30;73.10;;;;;;2394574;53;21767;-67
2022/01/23 07:28:38;;;;;;;8.10;3.47;;;7.20;72.90;;;;;;2393863;53;21423;-67
2022/01/23 07:31:06;;;;;;;6.80;3.50;;;7.30;73.00;;;;;;2369357;54;20941;-68
2022/01/23 07:33:38;;;;;;;6.35;4.07;;;7.20;72.90;;;;;;2420505;52;20983;-68
2022/01/23 07:36:05;;;;;;;7.62;4.62;;;7.20;73.00;;;;;;2394726;53;20990;-67
2022/01/23 07:38:31;;;;;;;6.87;3.78;;;7.20;73.00;;;;;;2421916;52;20948;-69
2022/01/23 07:40:58;;;;;;;8.95;4.25;;;7.20;73.20;;;;;;2393289;53;20932;-66
2022/01/23 07:43:24;;;;;;;7.68;4.43;;;7.20;73.30;;;;;;2541479;52;21476;-69
2022/01/23 07:45:50;;;;;;;7.75;4.35;;;7.20;73.30;;;;;;2394382;53;20936;-67
2022/01/23 07:48:17;;;;;;;9.18;5.57;;;7.20;73.40;;;;;;2394664;53;20924;-67
2022/01/23 07:50:43;;;;;;;9.32;4.95;;;7.30;73.60;;;;;;2394480;53;21049;-68
2022/01/23 07:53:11;;;;;;;9.02;4.93;;;7.30;73.60;;;;;;2373781;53;20948;-69
2022/01/23 07:55:37;;;;;;;11.90;5.68;;;7.30;73.70;;;;;;2426019;52;21050;-69
2022/01/23 07:58:10;;;;;;;11.80;5.72;;;7.30;73.60;;;;;;2394918;53;21504;-66
2022/01/23 08:00:54;;;;;;;10.30;5.22;;;7.30;73.60;;;;;;2394399;53;20927;-68
2022/01/23 08:03:20;;;;;;;10.35;5.07;;;7.40;73.40;;;;;;2552755;52;20935;-68
2022/01/23 08:05:46;;;;;;;10.05;5.05;;;7.40;73.60;;;;;;2394688;53;20895;-68
2022/01/23 08:08:13;;;;;;;11.48;5.90;;;7.40;73.80;;;;;;2394181;53;21424;-69
2022/01/23 08:10:39;;;;;;;12.50;6.87;;;7.40;73.70;;;;;;2394433;53;20921;-68
2022/01/23 08:13:05;;;;;;;12.65;6.37;;;7.40;73.60;;;;;;2394145;53;20955;-68
2022/01/23 08:15:32;;;;;;;13.32;7.00;;;7.40;73.60;;;;;;2383453;53;20925;-67
2022/01/23 08:18:02;;;;;;;11.63;6.90;;;7.40;73.60;;;;;;2382705;53;21369;-68
2022/01/23 08:20:28;;;;;;;13.75;7.82;;;7.40;73.60;;;;;;2391219;53;21512;-66
2022/01/23 08:22:55;;;;;;;11.93;7.05;;;7.40;73.60;;;;;;2374440;53;21802;-70
2022/01/23 08:25:21;;;;;;;11.57;6.65;;;7.40;73.70;;;;;;2554912;52;20928;-66
2022/01/23 08:27:47;;;;;;;12.05;7.43;;;7.40;73.70;;;;;;2370659;53;20971;-68
2022/01/23 08:30:14;;;;;;;13.23;7.53;;;7.50;73.80;;;;;;2395057;53;20947;-68
2022/01/23 08:32:41;;;;;;;12.10;6.45;;;7.50;73.90;;;;;;2467732;52;20951;-66
2022/01/23 08:35:08;;;;;;;13.62;7.18;;;7.50;73.90;;;;;;2394818;53;20931;-69
2022/01/23 08:37:34;;;;;;;12.23;7.07;;;7.50;73.80;;;;;;2377796;53;20921;-66
2022/01/23 08:40:01;;;;;;;12.60;7.15;;;7.50;73.90;;;;;;2447065;53;20923;-68
2022/01/23 08:42:27;;;;;;;11.75;6.95;;;7.50;73.90;;;;;;2394472;53;21066;-68
2022/01/23 08:44:54;;;;;;;11.25;6.55;;;7.60;74.00;;;;;;2395218;53;20923;-66
2022/01/23 08:47:22;;;;;;;10.77;6.05;;;7.60;74.10;;;;;;2394713;53;21369;-68
2022/01/23 08:49:50;;;;;;;9.55;5.25;;;7.60;74.10;;;;;;2394840;53;21659;-67
2022/01/23 08:52:20;;;;;;;11.23;6.22;;;7.60;74.10;;;;;;2394245;53;20904;-67
2022/01/23 08:54:50;;;;;;;10.60;6.20;;;7.60;74.00;;;;;;2384890;53;20912;-67
2022/01/23 08:57:18;;;;;;;10.18;5.43;;;7.70;74.10;;;;;;2396809;53;20935;-69
2022/01/23 08:59:45;;;;;;;10.43;5.62;;;7.70;74.20;;;;;;2393876;53;20935;-69
2022/01/23 09:02:11;;;;;;;8.88;4.80;;;7.70;74.20;;;;;;2395033;53;20928;-67
2022/01/23 09:04:37;;;;;;;10.52;5.75;;;7.80;74.30;;;;;;2534133;52;21313;-68
2022/01/23 09:07:04;;;;;;;10.77;6.25;;;7.80;74.30;;;;;;2394845;53;20915;-68
2022/01/23 09:09:32;;;;;;;10.27;5.32;;;7.80;74.20;;;;;;2394562;53;20932;-70
2022/01/23 09:12:06;;;;;;;11.48;6.18;;;7.80;74.10;;;;;;2652500;52;20994;-69
2022/01/23 09:14:33;;;;;;;9.20;5.75;;;7.80;74.00;;;;;;2595461;52;21470;-68
2022/01/23 09:17:00;;;;;;;8.88;5.20;;;7.80;74.10;;;;;;2394187;53;20923;-67
2022/01/23 09:19:26;;;;;;;8.95;5.93;;;7.80;74.20;;;;;;2394520;53;20980;-66
2022/01/23 09:21:53;;;;;;;9.65;5.62;;;7.90;74.20;;;;;;2394201;53;20955;-69
2022/01/23 09:24:20;;;;;;;12.95;6.35;;;7.90;74.20;;;;;;2393683;53;21451;-69
2022/01/23 09:26:53;;;;;;;11.23;6.00;;;7.90;74.20;;;;;;2394293;53;20919;-67
2022/01/23 09:29:30;;;;;;;13.57;7.62;;;8.00;74.30;;;;;;2394595;53;21796;-68
2022/01/23 09:31:56;;;;;;;12.88;7.50;;;8.00;74.30;;;;;;2395056;53;21345;-68
2022/01/23 09:34:29;;;;;;;11.32;7.45;;;8.00;74.20;;;;;;2394107;53;20924;-69
2022/01/23 09:36:56;;;;;;;11.07;6.87;;;8.00;74.20;;;;;;2394745;53;20975;-70
2022/01/23 09:39:23;;;;;;;10.68;6.15;;;8.10;74.30;;;;;;2400383;52;21464;-69
2022/01/23 09:42:06;;;;;;;10.80;5.70;;;8.10;74.30;;;;;;2372888;53;1277689;-67
2022/01/23 09:44:41;;;;;;;9.82;5.97;;;8.10;74.40;;;;;;2611570;53;21243;-65
2022/01/23 09:47:07;;;;;;;10.65;6.18;;;8.20;74.40;;;;;;2450137;53;21423;-69
2022/01/23 09:49:33;;;;;;;11.75;7.53;;;8.20;74.50;;;;;;2357800;53;20965;-69
2022/01/23 09:52:01;;;;;;;10.75;6.85;;;8.20;74.50;;;;;;2338968;53;20997;-70
2022/01/23 09:54:29;;;;;;;11.95;7.45;;;8.20;74.50;;;;;;2361601;54;20962;-68
2022/01/23 09:57:01;;;;;;;13.73;8.40;;;8.30;74.70;;;;;;2469224;52;20936;-67
2022/01/23 09:59:30;;;;;;;12.35;7.97;;;8.30;75.30;;;;;;2385042;54;20928;-70
2022/01/23 10:01:57;;;;;;;14.10;8.63;;;8.30;75.30;;;;;;2606876;52;21003;-66
2022/01/23 10:04:24;;;;;;;12.10;7.93;;;8.40;74.70;;;;;;2402096;52;21028;-66
2022/01/23 10:06:51;;;;;;;11.88;7.82;;;8.40;74.70;;;;;;2364075;54;21588;-68
2022/01/23 10:09:18;;;;;;;13.07;8.20;;;8.40;74.70;;;;;;2382171;53;21011;-70
2022/01/23 10:11:46;;;;;;;13.07;8.00;;;8.50;74.60;;;;;;2640776;52;21491;-67
2022/01/23 10:14:12;;;;;;;13.32;8.25;;;8.50;75.20;;;;;;2385640;54;20959;-66
2022/01/23 10:16:39;;;;;;;12.80;7.93;;;8.50;74.40;;;;;;2391519;52;20939;-69
2022/01/23 10:19:08;;;;;;;13.60;7.87;;;8.50;74.40;;;;;;2361338;53;20941;-67
2022/01/23 10:21:35;;;;;;;12.02;6.87;;;8.60;74.60;;;;;;2385269;54;21455;-68
2022/01/23 10:24:01;;;;;;;11.48;7.53;;;8.60;74.70;;;;;;2363780;53;20991;-68
2022/01/23 10:26:51;;;;;;;11.85;7.80;;;8.60;74.80;;;;;;2385019;54;20940;-67
2022/01/23 10:29:26;;;;;;;11.23;7.12;;;8.70;74.30;;;;;;2385858;54;20952;-66
2022/01/23 10:32:21;;;;;;;14.38;8.77;;;8.70;74.70;;;;;;2385262;54;21023;-67
2022/01/23 10:35:08;;;;;;;27.27;15.13;;;8.80;74.40;;;;;;2384900;54;21898;-68
2022/01/23 10:37:39;;;;;;;17.42;10.00;;;8.80;74.40;;;;;;2374819;54;21759;-67
2022/01/23 10:40:30;;;;;;;13.02;7.85;;;8.80;74.90;;;;;;2466169;53;20931;-66
2022/01/23 10:48:52;;;;;;;11.68;6.62;;;9.00;75.30;;;;;;2441986;52;20924;-68
2022/01/23 10:51:41;;;;;;;10.85;6.32;;;9.00;75.30;;;;;;2385321;54;20915;-68
2022/01/23 10:54:40;;;;;;;9.30;5.87;;;9.10;74.90;;;;;;2385361;54;21768;-68
2022/01/23 10:57:07;;;;;;;10.85;6.00;;;9.20;74.90;;;;;;2385620;54;20944;-66
2022/01/23 10:59:46;;;;;;;9.40;6.62;;;9.20;75.80;;;;;;2385072;54;20979;-69
2022/01/23 11:02:21;;;;;;;11.75;7.35;;;9.30;75.70;;;;;;2358974;54;20926;-70
2022/01/23 11:05:04;;;;;;;11.73;7.47;;;9.40;75.90;;;;;;2370600;54;20921;-68
2022/01/23 11:07:31;;;;;;;11.35;7.28;;;9.40;75.40;;;;;;2378097;54;21493;-68
2022/01/23 11:10:06;;;;;;;13.70;7.82;;;9.50;75.70;;;;;;2385227;54;21909;-67
2022/01/23 11:18:48;;;;;;;11.30;7.22;;;9.60;75.40;;;;;;2385119;54;20940;-68
2022/01/23 11:21:21;;;;;;;13.85;9.32;;;9.70;75.60;;;;;;2385208;54;20982;-67
2022/01/23 11:24:01;;;;;;;13.00;8.65;;;9.70;75.90;;;;;;2497538;52;20947;-67
2022/01/23 11:26:28;;;;;;;13.02;8.93;;;9.80;76.40;;;;;;2385151;54;20940;-69
2022/01/23 11:28:54;;;;;;;14.40;9.05;;;9.90;76.50;;;;;;2385019;54;20998;-68
2022/01/23 11:31:22;;;;;;;12.32;8.52;;;10.00;75.50;;;;;;2384303;54;21098;-69
2022/01/23 11:33:50;;;;;;;12.55;8.35;;;10.00;75.20;;;;;;2384628;54;20987;-69
2022/01/23 11:36:18;;;;;;;10.43;6.45;;;10.10;74.80;;;;;;2385044;54;21023;-66
2022/01/23 11:38:46;;;;;;;8.95;5.90;;;10.10;74.50;;;;;;2385569;54;21035;-69
2022/01/23 11:55:52;;;;;;;5.75;3.28;;;10.40;73.50;;;;;;2361924;53;21050;-67
2022/01/23 11:58:34;;;;;;;4.45;2.53;;;10.50;72.40;;;;;;2580788;53;20954;-69
2022/01/23 12:01:19;;;;;;;4.68;2.78;;;10.50;72.80;;;;;;2361006;54;20935;-67
2022/01/23 12:04:17;;;;;;;4.12;2.33;;;10.50;72.10;;;;;;2378431;54;20942;-68
2022/01/23 12:06:45;;;;;;;5.18;2.75;;;10.50;72.20;;;;;;2365379;54;21487;-66
2022/01/23 12:09:21;;;;;;;3.80;2.10;;;10.60;73.20;;;;;;2365945;53;21339;-69
2022/01/23 12:12:29;;;;;;;4.70;2.87;;;10.60;72.50;;;;;;2365769;53;20993;-68
2022/01/23 12:18:22;;;;;;;4.53;2.45;;;10.70;71.70;;;;;;2356010;53;20994;-68
2022/01/23 12:20:50;;;;;;;4.25;2.45;;;10.70;72.10;;;;;;2356377;53;20954;-68
2022/01/23 12:23:16;;;;;;;4.30;2.15;;;10.60;72.40;;;;;;2355694;53;20903;-69
2022/01/23 12:25:48;;;;;;;4.03;2.33;;;10.70;72.40;;;;;;2356211;53;20954;-68
2022/01/23 12:29:43;;;;;;;4.97;2.33;;;10.70;71.90;;;;;;2334757;53;20923;-69
2022/01/23 12:32:43;;;;;;;4.78;2.15;;;10.60;70.20;;;;;;2356220;54;21640;-69
2022/01/23 12:35:10;;;;;;;4.30;2.15;;;10.70;70.70;;;;;;2584684;52;20950;-69
2022/01/23 12:38:04;;;;;;;4.72;2.35;;;10.70;72.40;;;;;;2353914;53;21924;-70
2022/01/23 12:40:37;;;;;;;4.78;2.40;;;10.70;71.30;;;;;;2355341;54;21406;-68
2022/01/23 12:43:21;;;;;;;3.75;2.15;;;10.70;71.90;;;;;;2353907;54;20978;-69
2022/01/23 12:46:01;;;;;;;5.20;2.53;;;10.70;71.00;;;;;;2338657;54;21784;-69
2022/01/23 12:48:44;;;;;;;4.95;2.67;;;10.70;71.30;;;;;;2371495;53;21849;-67
2022/01/23 12:51:30;;;;;;;4.87;2.42;;;10.70;70.70;;;;;;2364576;54;20972;-66
2022/01/23 12:54:12;;;;;;;4.35;2.15;;;10.70;70.30;;;;;;2372965;53;20970;-70
2022/01/23 12:56:43;;;;;;;5.95;2.58;;;10.70;70.50;;;;;;2371526;53;20930;-69
2022/01/23 12:59:22;;;;;;;3.55;2.17;;;10.60;71.20;;;;;;2370910;52;20995;-69
2022/01/23 13:01:54;;;;;;;4.30;2.42;;;10.60;71.00;;;;;;2365785;53;21014;-67
2022/01/23 13:04:21;;;;;;;4.22;2.40;;;10.70;71.30;;;;;;2353089;54;21398;-66
2022/01/23 13:06:58;;;;;;;4.37;2.60;;;10.60;71.20;;;;;;2348042;54;20946;-68
2022/01/23 13:09:46;;;;;;;5.55;2.40;;;10.60;71.10;;;;;;2354202;54;21570;-67
2022/01/23 13:12:34;;;;;;;4.05;2.55;;;10.60;71.20;;;;;;2360018;53;21329;-68
2022/01/23 13:19:18;;;;;;;4.82;2.42;;;10.70;71.70;;;;;;2365551;54;20950;-66
2022/01/23 13:26:29;;;;;;;5.22;3.03;;;10.80;72.30;;;;;;2364985;53;20933;-67
2022/01/23 13:31:48;;;;;;;4.72;2.42;;;10.90;72.00;;;;;;2393805;53;20915;-67
2022/01/23 13:35:08;;;;;;;4.10;2.37;;;10.90;71.80;;;;;;2392741;53;21002;-68
2022/01/23 13:37:36;;;;;;;5.15;2.37;;;10.90;71.00;;;;;;2393567;53;20927;-66
2022/01/23 13:40:14;;;;;;;4.50;2.45;;;10.90;71.30;;;;;;2392763;53;21043;-69
2022/01/23 13:42:53;;;;;;;3.90;2.12;;;10.90;70.40;;;;;;2493217;52;21565;-69
2022/01/23 13:58:20;;;;;;;4.82;2.15;;;10.80;70.90;;;;;;2393897;53;20971;-68
2022/01/23 14:00:57;;;;;;;4.35;2.10;;;10.80;70.40;;;;;;2394220;53;20952;-67
2022/01/23 14:03:23;;;;;;;4.18;2.17;;;10.80;70.00;;;;;;2394232;53;20935;-66
2022/01/23 14:05:49;;;;;;;4.93;2.47;;;10.80;70.80;;;;;;2394218;53;21499;-70
2022/01/23 14:08:16;;;;;;;4.75;2.70;;;10.70;70.70;;;;;;2393917;53;20923;-68
2022/01/23 14:10:43;;;;;;;4.90;2.58;;;10.80;70.70;;;;;;2393619;53;20987;-67
2022/01/23 14:13:15;;;;;;;4.37;2.53;;;10.70;70.50;;;;;;2393900;53;20982;-67
2022/01/23 14:15:45;;;;;;;4.85;2.65;;;10.70;70.70;;;;;;2386639;53;20957;-69
2022/01/23 14:18:12;;;;;;;4.87;2.20;;;10.70;70.00;;;;;;2375627;53;20939;-68
2022/01/23 14:20:44;;;;;;;4.32;1.98;;;10.70;70.10;;;;;;2393161;53;21669;-70
2022/01/23 14:23:20;;;;;;;3.97;2.22;;;10.70;69.80;;;;;;2393573;53;20948;-66
2022/01/23 14:25:58;;;;;;;4.75;2.30;;;10.60;69.60;;;;;;2394346;53;20991;-68
2022/01/23 14:28:48;;;;;;;3.72;1.70;;;10.60;69.70;;;;;;2394089;53;21504;-69
2022/01/23 14:31:20;;;;;;;3.92;2.30;;;10.60;69.80;;;;;;2394099;53;21787;-68
2022/01/23 14:33:51;;;;;;;3.87;1.98;;;10.50;69.80;;;;;;2394214;53;21262;-69
2022/01/23 14:36:27;;;;;;;4.55;2.17;;;10.50;69.50;;;;;;2394266;53;20971;-68
2022/01/23 14:39:09;;;;;;;4.30;2.15;;;10.40;69.40;;;;;;2394137;53;20998;-67
2022/01/23 14:41:40;;;;;;;3.75;1.90;;;10.40;68.70;;;;;;2372866;53;21503;-67
2022/01/23 14:45:07;;;;;;;4.80;2.30;;;10.40;69.40;;;;;;2374002;53;20984;-67
2022/01/23 14:47:41;;;;;;;4.15;2.00;;;10.30;67.70;;;;;;2394026;53;20936;-68
2022/01/23 14:50:10;;;;;;;4.22;2.25;;;10.30;69.30;;;;;;2394214;53;21717;-67
2022/01/23 14:52:40;;;;;;;4.40;2.55;;;10.30;69.60;;;;;;2393608;53;20939;-69
2022/01/23 14:55:08;;;;;;;3.92;1.92;;;10.20;69.50;;;;;;2372391;53;20929;-66
2022/01/23 14:57:35;;;;;;;4.47;2.35;;;10.20;69.50;;;;;;2388141;53;20965;-69
2022/01/23 15:00:04;;;;;;;4.03;2.20;;;10.20;69.50;;;;;;2652122;52;20955;-67
2022/01/23 15:02:30;;;;;;;3.85;2.22;;;10.10;69.30;;;;;;2374100;53;21004;-68
2022/01/23 15:05:02;;;;;;;5.37;2.70;;;10.10;69.50;;;;;;2385857;53;21788;-68
2022/01/23 15:07:37;;;;;;;3.78;2.22;;;10.10;69.60;;;;;;2513201;53;20928;-66
2022/01/23 15:10:04;;;;;;;3.62;2.10;;;10.10;69.30;;;;;;2389594;53;21409;-68
2022/01/23 15:12:30;;;;;;;4.35;2.33;;;10.10;69.70;;;;;;2370416;53;20914;-67
2022/01/23 15:14:56;;;;;;;3.95;2.10;;;10.00;69.60;;;;;;2394004;53;21043;-67
2022/01/23 15:17:24;;;;;;;4.25;2.72;;;10.00;69.50;;;;;;2439391;52;20951;-67
2022/01/23 15:19:54;;;;;;;5.15;2.08;;;9.90;70.50;;;;;;2394478;53;20915;-66
2022/01/23 15:22:21;;;;;;;4.00;1.95;;;10.00;69.30;;;;;;2393752;53;20959;-68
2022/01/23 15:24:47;;;;;;;4.40;2.50;;;9.90;70.50;;;;;;2394109;53;21482;-67
2022/01/23 15:27:14;;;;;;;4.82;2.20;;;9.90;70.50;;;;;;2516079;52;20936;-68
2022/01/23 15:29:44;;;;;;;4.57;2.53;;;9.80;70.40;;;;;;2393751;53;20912;-69
2022/01/23 15:32:10;;;;;;;3.87;2.37;;;9.80;70.20;;;;;;2393782;53;20923;-67
2022/01/23 15:34:36;;;;;;;5.22;3.10;;;9.80;70.40;;;;;;2467167;52;20931;-68
2022/01/23 15:37:07;;;;;;;4.68;2.60;;;9.80;70.30;;;;;;2394482;53;20943;-68
2022/01/23 15:39:33;;;;;;;3.83;2.15;;;9.70;70.00;;;;;;2366862;53;20963;-68
2022/01/23 15:41:59;;;;;;;3.92;2.22;;;9.70;70.20;;;;;;2394391;53;20943;-67
2022/01/23 15:44:25;;;;;;;4.03;2.05;;;9.60;70.10;;;;;;2393662;53;20938;-67
2022/01/23 15:46:52;;;;;;;3.90;2.10;;;9.60;70.10;;;;;;2392757;53;20922;-68
2022/01/23 15:49:18;;;;;;;4.10;2.20;;;9.60;70.10;;;;;;2353086;53;21522;-69
2022/01/23 15:51:47;;;;;;;3.95;2.15;;;9.50;70.10;;;;;;2381051;53;21480;-69
2022/01/23 15:54:18;;;;;;;3.80;2.03;;;9.50;70.00;;;;;;2393419;53;20954;-67
2022/01/23 15:56:47;;;;;;;4.30;1.90;;;9.50;69.80;;;;;;2436837;52;20973;-67
2022/01/23 15:59:17;;;;;;;4.07;2.10;;;9.40;69.80;;;;;;2357249;53;20946;-68
2022/01/23 16:01:48;;;;;;;3.55;2.12;;;9.40;69.80;;;;;;2365744;53;20947;-66
2022/01/23 16:04:18;;;;;;;6.20;2.28;;;9.30;69.60;;;;;;2394056;53;21035;-69
2022/01/23 16:06:44;;;;;;;3.87;1.95;;;9.30;69.80;;;;;;2394177;53;20943;-66
2022/01/23 16:09:11;;;;;;;4.05;2.17;;;9.20;70.20;;;;;;2525646;52;20979;-67
2022/01/23 16:11:37;;;;;;;4.32;2.37;;;9.20;69.70;;;;;;2393859;53;21002;-68
2022/01/23 16:14:07;;;;;;;4.45;2.35;;;9.10;69.60;;;;;;2394143;53;20935;-69
2022/01/23 16:16:33;;;;;;;4.85;2.30;;;9.10;69.70;;;;;;2490876;52;20948;-66
2022/01/23 16:19:00;;;;;;;4.90;2.67;;;9.10;69.80;;;;;;2395050;56;21055;-67
2022/01/23 16:21:26;;;;;;;4.18;2.45;;;9.00;69.70;;;;;;2389531;56;21027;-66
2022/01/23 16:23:52;;;;;;;4.60;2.50;;;9.00;69.70;;;;;;2620070;52;20949;-67
2022/01/23 16:26:19;;;;;;;4.70;2.53;;;8.90;69.60;;;;;;2385519;53;21023;-68
2022/01/23 16:28:47;;;;;;;4.30;2.58;;;8.80;69.60;;;;;;2392344;53;21401;-69